Time;durP1;ratioP1;P1;durP2;ratioP2;P2;SDS_P1;SDS_P2;PMS_P1;PMS_P2;Temp;Humidity;BMP_temperature;BMP_pressure;BME280_temperature;BME280_humidity;BME280_pressure;Samples;Min_cycle;Max_cycle;Signal;HPM_P1;HPM_P2
2022/05/20 00:00:26;;;;;;;19.25;13.95;;;17.10;99.90;;;;;;12527302;28;20007;-83
2022/05/20 00:06:27;;;;;;;25.38;15.55;;;17.10;99.90;;;;;;12497349;28;20493;-83
2022/05/20 00:12:29;;;;;;;19.67;16.13;;;16.90;99.90;;;;;;12506233;28;20547;-82
2022/05/20 00:18:32;;;;;;;20.67;16.13;;;16.80;99.90;;;;;;12522206;28;20064;-83
2022/05/20 00:25:45;;;;;;;24.08;15.95;;;16.70;99.90;;;;;;12508671;28;20485;-83
2022/05/20 00:31:04;;;;;;;23.30;16.30;;;16.60;99.90;;;;;;12529432;28;20045;-83
2022/05/20 00:37:06;;;;;;;21.88;16.63;;;16.50;99.90;;;;;;12529600;28;20052;-83
2022/05/20 00:43:36;;;;;;;24.27;16.95;;;16.40;99.90;;;;;;12524581;28;20040;-83
2022/05/20 00:49:41;;;;;;;24.10;18.40;;;16.40;99.90;;;;;;12496400;28;20534;-83
2022/05/20 00:55:44;;;;;;;20.55;17.45;;;16.40;99.90;;;;;;12507779;28;20565;-82
2022/05/20 01:01:48;;;;;;;28.38;19.30;;;16.30;99.90;;;;;;12521045;28;20098;-83
2022/05/20 01:07:53;;;;;;;22.60;18.13;;;16.40;99.90;;;;;;12503173;28;20572;-83
2022/05/20 01:13:55;;;;;;;23.73;18.85;;;16.30;99.90;;;;;;12522738;28;20430;-83
2022/05/20 01:19:58;;;;;;;22.90;18.58;;;16.40;99.90;;;;;;12522679;28;20443;-84
2022/05/20 01:26:00;;;;;;;22.40;16.23;;;16.30;99.90;;;;;;12522145;28;20106;-82
2022/05/20 01:32:02;;;;;;;25.42;16.23;;;16.10;99.90;;;;;;12503272;28;20049;-83
2022/05/20 01:38:05;;;;;;;21.95;16.45;;;15.90;99.90;;;;;;12519003;28;20126;-81
2022/05/20 01:44:51;;;;;;;24.73;15.97;;;15.80;99.90;;;;;;12512787;28;20049;-83
2022/05/20 01:50:55;;;;;;;26.30;15.95;;;15.60;99.90;;;;;;12266262;28;20047;-82
2022/05/20 01:57:08;;;;;;;21.55;16.48;;;15.40;99.90;;;;;;12255922;28;20061;-82
2022/05/20 02:03:21;;;;;;;19.77;15.27;;;15.40;99.90;;;;;;12510093;28;20417;-82
2022/05/20 02:09:31;;;;;;;20.40;15.90;;;15.40;99.90;;;;;;12514014;28;20098;-82
2022/05/20 02:15:47;;;;;;;21.83;15.82;;;15.20;99.90;;;;;;12515290;28;20106;-82
2022/05/20 02:21:53;;;;;;;23.38;16.75;;;15.30;99.90;;;;;;12518661;28;20092;-82
2022/05/20 02:28:10;;;;;;;25.70;18.05;;;15.20;99.90;;;;;;12506083;28;20048;-83
2022/05/20 02:34:12;;;;;;;23.75;16.55;;;15.20;99.90;;;;;;12518313;28;20059;-82
2022/05/20 02:40:16;;;;;;;26.42;17.63;;;15.20;99.90;;;;;;12515989;28;20102;-82
2022/05/20 02:46:18;;;;;;;26.42;18.05;;;15.30;99.90;;;;;;12516387;28;20053;-82
2022/05/20 02:52:20;;;;;;;23.38;17.42;;;15.20;99.90;;;;;;12515144;28;20599;-83
2022/05/20 03:04:42;;;;;;;26.17;17.73;;;15.10;99.90;;;;;;12519396;28;20051;-82
2022/05/20 03:10:44;;;;;;;24.67;17.70;;;15.00;99.90;;;;;;12517354;28;20090;-82
2022/05/20 03:16:46;;;;;;;22.73;18.13;;;15.00;99.90;;;;;;12505529;28;20135;-82
2022/05/20 03:22:48;;;;;;;24.33;17.67;;;15.00;99.90;;;;;;12500920;28;20119;-82
2022/05/20 03:28:50;;;;;;;24.42;17.15;;;15.10;99.90;;;;;;12536630;28;20110;-83
2022/05/20 03:34:52;;;;;;;21.50;16.90;;;15.10;99.90;;;;;;12529293;28;20532;-82
2022/05/20 03:40:54;;;;;;;24.45;16.35;;;15.10;99.90;;;;;;12532106;28;20110;-83
2022/05/20 03:46:56;;;;;;;18.45;14.82;;;15.10;99.90;;;;;;12515509;28;20631;-82
2022/05/20 03:52:59;;;;;;;20.42;14.77;;;15.00;99.90;;;;;;12511064;28;20481;-82
2022/05/20 03:59:01;;;;;;;23.13;14.38;;;14.90;99.90;;;;;;12532386;28;20049;-82
2022/05/20 04:05:03;;;;;;;19.98;14.38;;;14.90;99.90;;;;;;12528454;28;20049;-82
2022/05/20 04:11:11;;;;;;;18.40;13.90;;;14.90;99.90;;;;;;12511334;28;21976;-82
2022/05/20 04:17:13;;;;;;;19.38;14.48;;;14.70;99.90;;;;;;12508133;28;20131;-82
2022/05/20 04:23:17;;;;;;;19.30;14.15;;;14.70;99.90;;;;;;12496663;28;20555;-82
2022/05/20 04:29:19;;;;;;;17.73;13.50;;;14.70;99.90;;;;;;12506046;28;20598;-82
2022/05/20 04:35:20;;;;;;;18.75;13.43;;;14.70;99.90;;;;;;12524818;28;20061;-82
2022/05/20 04:47:43;;;;;;;16.80;12.38;;;14.70;99.90;;;;;;12526721;28;20128;-83
2022/05/20 05:00:14;;;;;;;15.43;13.55;;;14.60;99.90;;;;;;12522286;28;20052;-83
2022/05/20 05:06:15;;;;;;;17.70;12.43;;;14.70;99.90;;;;;;12523560;28;20497;-82
2022/05/20 05:12:17;;;;;;;17.23;12.50;;;14.70;99.90;;;;;;12521792;28;20045;-82
2022/05/20 05:18:23;;;;;;;16.42;12.32;;;14.80;99.90;;;;;;12506770;28;20044;-82
2022/05/20 05:24:25;;;;;;;16.10;11.75;;;14.70;99.90;;;;;;12506856;28;20131;-83
2022/05/20 05:30:27;;;;;;;14.65;11.32;;;14.50;99.90;;;;;;12503284;28;20053;-83
2022/05/20 05:36:29;;;;;;;17.50;12.40;;;14.50;99.90;;;;;;12520426;28;20061;-82
2022/05/20 05:42:31;;;;;;;14.10;12.32;;;14.70;99.90;;;;;;12504689;28;20086;-82
2022/05/20 05:48:33;;;;;;;17.17;12.45;;;14.90;99.90;;;;;;12503108;28;20052;-82
2022/05/20 05:54:35;;;;;;;14.80;12.82;;;14.80;99.90;;;;;;12522856;28;20102;-83
2022/05/20 06:00:41;;;;;;;17.55;12.60;;;14.80;99.90;;;;;;12500663;28;20045;-81
2022/05/20 06:06:43;;;;;;;19.03;13.70;;;14.70;99.90;;;;;;12521809;28;20061;-82
2022/05/20 06:12:45;;;;;;;18.65;13.57;;;14.70;99.90;;;;;;12520842;28;20205;-82
2022/05/20 06:18:51;;;;;;;15.45;12.95;;;14.80;99.90;;;;;;12516578;28;20934;-82
2022/05/20 06:24:53;;;;;;;19.10;13.25;;;15.10;99.90;;;;;;12490261;28;20838;-82
2022/05/20 06:30:55;;;;;;;17.92;12.80;;;15.20;99.90;;;;;;12517366;28;20045;-82
2022/05/20 06:43:19;;;;;;;18.17;13.93;;;15.20;99.90;;;;;;12517926;28;20060;-82
2022/05/20 06:49:21;;;;;;;18.92;13.50;;;15.40;99.90;;;;;;12501723;28;20143;-82
2022/05/20 06:55:23;;;;;;;17.92;13.18;;;15.20;99.90;;;;;;12520340;28;20546;-82
2022/05/20 07:01:26;;;;;;;18.33;13.23;;;15.50;99.90;;;;;;12510360;28;21889;-82
2022/05/20 07:07:28;;;;;;;16.38;12.02;;;15.50;99.90;;;;;;12512127;28;20124;-82
2022/05/20 07:13:32;;;;;;;18.35;12.70;;;15.60;99.90;;;;;;12508605;28;20473;-82
2022/05/20 07:19:38;;;;;;;17.98;13.07;;;15.70;99.90;;;;;;12528802;28;20835;-82
2022/05/20 07:25:40;;;;;;;19.25;14.02;;;15.70;99.90;;;;;;12511694;28;20414;-83
2022/05/20 07:31:41;;;;;;;20.25;12.73;;;15.60;99.90;;;;;;12511938;28;20048;-83
2022/05/20 07:37:44;;;;;;;16.38;12.85;;;15.70;99.90;;;;;;12528708;28;20049;-82
2022/05/20 07:43:46;;;;;;;15.60;11.50;;;15.90;99.90;;;;;;12511948;28;20041;-83
2022/05/20 07:49:48;;;;;;;14.98;11.77;;;15.90;99.90;;;;;;12524525;28;20500;-83
2022/05/20 07:56:11;;;;;;;14.85;11.30;;;16.20;99.90;;;;;;12507344;28;20448;-83
2022/05/20 08:02:16;;;;;;;13.80;9.37;;;15.90;99.90;;;;;;12504660;28;20099;-83
2022/05/20 08:08:18;;;;;;;12.93;8.43;;;16.30;99.90;;;;;;12501117;28;20064;-82
2022/05/20 08:14:22;;;;;;;12.80;7.50;;;16.10;99.90;;;;;;12497959;28;20133;-83
2022/05/20 08:20:27;;;;;;;12.20;7.60;;;16.20;99.90;;;;;;12523505;28;20106;-83
2022/05/20 08:26:29;;;;;;;11.68;7.05;;;16.50;99.90;;;;;;12509576;28;20053;-83
2022/05/20 08:32:31;;;;;;;10.10;7.05;;;16.80;99.90;;;;;;12525616;28;20049;-83
2022/05/20 08:38:34;;;;;;;8.18;6.00;;;16.80;99.90;;;;;;12505943;28;20471;-83
2022/05/20 08:44:36;;;;;;;12.75;6.80;;;16.80;99.90;;;;;;12524238;28;20071;-83
2022/05/20 08:50:43;;;;;;;7.63;6.15;;;16.70;99.90;;;;;;12511582;28;20045;-83
2022/05/20 08:56:46;;;;;;;8.30;6.18;;;17.00;99.90;;;;;;12514705;28;20136;-83
2022/05/20 09:02:49;;;;;;;9.98;6.18;;;17.20;99.90;;;;;;12521189;28;20079;-84
2022/05/20 09:09:04;;;;;;;12.48;6.93;;;17.60;99.90;;;;;;12543621;28;20053;-84
2022/05/20 09:21:39;;;;;;;9.43;6.30;;;18.20;99.90;;;;;;12536962;28;20113;-83
2022/05/20 09:27:41;;;;;;;10.23;5.95;;;18.50;99.90;;;;;;12523936;28;21547;-83
2022/05/20 09:34:11;;;;;;;7.68;5.03;;;18.80;99.90;;;;;;12505006;28;20061;-83
2022/05/20 09:40:22;;;;;;;8.40;4.70;;;18.90;99.90;;;;;;12521458;28;20771;-83
2022/05/20 09:47:26;;;;;;;7.15;3.50;;;19.10;99.90;;;;;;12506786;28;20493;-82
2022/05/20 09:53:39;;;;;;;7.25;2.50;;;19.30;99.90;;;;;;12492257;28;20146;-83
2022/05/20 09:59:56;;;;;;;5.93;2.03;;;19.60;99.90;;;;;;12506807;28;20052;-83
2022/05/20 10:06:16;;;;;;;6.45;2.63;;;19.60;99.90;;;;;;12501198;28;20444;-82
2022/05/20 10:12:34;;;;;;;5.35;2.35;;;19.90;99.90;;;;;;12520967;28;20489;-84
2022/05/20 10:19:19;;;;;;;4.60;2.58;;;20.20;99.90;;;;;;12514545;28;20052;-82
2022/05/20 10:25:52;;;;;;;6.18;2.80;;;20.20;99.90;;;;;;12520833;28;20588;-83
2022/05/20 10:38:43;;;;;;;7.78;3.75;;;20.90;99.90;;;;;;12516345;28;20065;-82
2022/05/20 10:52:00;;;;;;;9.00;4.60;;;20.60;99.90;;;;;;12483272;28;20085;-81
2022/05/20 10:58:30;;;;;;;5.88;3.05;;;20.70;99.90;;;;;;12502301;28;20063;-82
2022/05/20 11:04:32;;;;;;;6.63;3.83;;;21.00;99.90;;;;;;12513332;28;20049;-82
2022/05/20 11:10:58;;;;;;;7.32;4.63;;;20.60;99.90;;;;;;12518439;28;20076;-83
2022/05/20 11:17:06;;;;;;;7.57;3.58;;;20.50;99.90;;;;;;12514394;28;20080;-83
2022/05/20 11:23:39;;;;;;;5.95;3.92;;;21.00;99.90;;;;;;12491450;28;20056;-82
2022/05/20 11:29:53;;;;;;;5.97;3.85;;;21.20;99.90;;;;;;12516717;28;20045;-83
2022/05/20 11:36:36;;;;;;;6.57;3.55;;;21.30;99.90;;;;;;12518286;28;20463;-81
2022/05/20 11:43:10;;;;;;;5.00;2.90;;;21.90;99.90;;;;;;12494895;28;20074;-82
2022/05/20 11:49:30;;;;;;;5.55;3.53;;;22.00;99.90;;;;;;12527534;28;20112;-83
2022/05/20 11:55:39;;;;;;;8.40;3.85;;;22.20;99.90;;;;;;12524989;28;20259;-83
2022/05/20 12:01:43;;;;;;;6.53;4.03;;;22.00;99.90;;;;;;12525015;28;20117;-81
2022/05/20 12:07:45;;;;;;;6.18;3.70;;;22.00;99.90;;;;;;12525657;28;20048;-84
2022/05/20 12:14:16;;;;;;;5.20;3.30;;;22.30;99.90;;;;;;12507920;28;20079;-81
2022/05/20 12:27:23;;;;;;;4.35;2.20;;;22.90;99.90;;;;;;12528442;28;20098;-82
2022/05/20 12:33:46;;;;;;;7.45;3.47;;;22.60;99.90;;;;;;12515575;28;20190;-83
2022/05/20 12:39:51;;;;;;;8.32;3.50;;;22.60;99.90;;;;;;12524530;28;20045;-82
2022/05/20 12:45:55;;;;;;;7.25;3.95;;;23.20;99.90;;;;;;12514689;28;20041;-83
2022/05/20 12:52:12;;;;;;;8.90;4.75;;;22.80;99.90;;;;;;12506187;28;20063;-83
2022/05/20 12:58:15;;;;;;;7.38;4.10;;;22.80;99.90;;;;;;12510090;28;20049;-82
2022/05/20 13:04:19;;;;;;;14.88;7.38;;;22.60;99.90;;;;;;12508273;28;20045;-82
2022/05/20 13:10:23;;;;;;;11.23;6.90;;;22.80;99.90;;;;;;12502097;28;20551;-83
2022/05/20 13:16:25;;;;;;;12.25;8.10;;;22.80;99.90;;;;;;12520464;28;20054;-83
2022/05/20 13:22:29;;;;;;;11.30;7.30;;;22.70;99.90;;;;;;12503068;28;20045;-83
2022/05/20 13:28:34;;;;;;;9.30;6.72;;;23.00;99.90;;;;;;12519079;28;20111;-83
2022/05/20 13:34:38;;;;;;;10.25;7.18;;;22.70;99.90;;;;;;12487242;28;20045;-83
2022/05/20 13:40:42;;;;;;;12.77;7.28;;;22.70;99.90;;;;;;12506210;28;20053;-82
2022/05/20 13:53:05;;;;;;;10.52;8.00;;;22.80;99.90;;;;;;12523104;28;20539;-83
2022/05/20 13:59:32;;;;;;;15.68;8.95;;;22.40;99.90;;;;;;12522046;28;21005;-83
2022/05/20 14:05:59;;;;;;;11.68;8.32;;;22.20;99.90;;;;;;12437065;28;20407;-39
2022/05/20 14:12:02;;;;;;;10.13;7.77;;;21.90;99.90;;;;;;12450435;28;20546;-38
2022/05/20 14:18:06;;;;;;;11.80;8.05;;;21.90;99.90;;;;;;12445104;28;20137;-38
2022/05/20 14:24:18;;;;;;;11.13;7.53;;;21.80;99.90;;;;;;12446248;28;20057;-40
2022/05/20 14:30:44;;;;;;;13.45;7.88;;;21.40;99.90;;;;;;12442864;28;20050;-37
2022/05/20 14:36:47;;;;;;;14.07;9.02;;;21.10;99.90;;;;;;12441045;28;20084;-39
2022/05/20 14:42:55;;;;;;;12.65;9.45;;;20.90;99.90;;;;;;12438717;28;20054;-37
2022/05/20 14:48:57;;;;;;;10.90;8.05;;;20.70;99.90;;;;;;12440878;28;20073;-37
2022/05/20 14:55:08;;;;;;;18.35;8.60;;;20.50;99.90;;;;;;12438632;28;20053;-37
2022/05/20 15:01:12;;;;;;;18.45;12.35;;;20.30;99.90;;;;;;12443195;28;20053;-37
2022/05/20 15:07:14;;;;;;;;;;;20.10;99.90;;;;;;12444708;28;20062;-40
2022/05/20 15:13:16;;;;;;;21.00;12.73;;;20.00;99.90;;;;;;12423928;28;19936;-40
2022/05/20 15:19:18;;;;;;;32.13;16.00;;;20.00;99.90;;;;;;12399868;28;20065;-41
2022/05/20 15:25:24;;;;;;;119.22;20.30;;;19.80;99.90;;;;;;12404866;28;20181;-43
2022/05/20 15:37:54;;;;;;;59.95;20.67;;;19.40;99.90;;;;;;12409573;28;20046;-40
2022/05/20 15:43:59;;;;;;;32.47;20.67;;;19.20;99.90;;;;;;12416593;28;20054;-41
2022/05/20 15:50:08;;;;;;;36.90;19.55;;;19.00;99.90;;;;;;12412163;28;20116;-41
2022/05/20 15:56:10;;;;;;;26.15;12.73;;;18.80;99.90;;;;;;12406952;28;20537;-39
2022/05/20 16:02:13;;;;;;;27.70;10.57;;;18.80;99.90;;;;;;12399356;28;20052;-39
2022/05/20 16:08:17;;;;;;;14.57;10.30;;;18.90;99.90;;;;;;12407333;28;20085;-38
2022/05/20 16:14:19;;;;;;;10.95;9.32;;;19.00;99.90;;;;;;12407465;28;20046;-38
2022/05/20 16:20:21;;;;;;;14.68;10.55;;;18.90;99.90;;;;;;12402649;28;20138;-38
2022/05/20 16:26:32;;;;;;;12.87;9.63;;;18.80;99.90;;;;;;12408448;28;20506;-37
2022/05/20 16:32:34;;;;;;;22.50;11.60;;;18.90;99.90;;;;;;12411644;28;20109;-40
2022/05/20 16:38:38;;;;;;;12.33;10.83;;;18.90;99.90;;;;;;12409793;28;20054;-40
2022/05/20 16:44:40;;;;;;;14.27;9.38;;;18.80;99.90;;;;;;12408863;28;20037;-41
2022/05/20 16:50:43;;;;;;;13.45;10.70;;;18.90;99.90;;;;;;12411011;28;20069;-38
2022/05/20 17:03:12;;;;;;;12.52;10.23;;;18.90;99.90;;;;;;12402522;28;20136;-40
2022/05/20 17:09:14;;;;;;;16.50;9.77;;;18.90;99.90;;;;;;12400434;28;20196;-40
2022/05/20 17:15:16;;;;;;;10.77;8.90;;;19.00;99.90;;;;;;12406996;28;20054;-38
2022/05/20 17:27:41;;;;;;;11.80;6.40;;;19.20;99.90;;;;;;12402917;28;20547;-40
2022/05/20 17:33:43;;;;;;;8.82;3.35;;;19.30;99.90;;;;;;12406048;28;20498;-39
2022/05/20 17:39:45;;;;;;;6.53;3.50;;;19.10;99.90;;;;;;12401689;28;20409;-39
2022/05/20 17:45:47;;;;;;;4.50;2.63;;;19.00;99.90;;;;;;12405842;28;20052;-39
2022/05/20 17:51:50;;;;;;;3.85;2.30;;;19.10;99.90;;;;;;12401096;28;20046;-37
2022/05/20 17:57:54;;;;;;;4.10;2.30;;;19.30;99.90;;;;;;12406357;28;20093;-40
2022/05/20 18:03:57;;;;;;;3.40;2.40;;;19.20;99.90;;;;;;12406289;28;20049;-39
2022/05/20 18:09:59;;;;;;;4.68;2.33;;;19.10;99.90;;;;;;12401905;28;20461;-37
2022/05/20 18:16:01;;;;;;;4.10;2.70;;;19.10;99.90;;;;;;12401701;28;20056;-39
2022/05/20 18:22:04;;;;;;;4.35;2.88;;;18.90;99.90;;;;;;12400481;28;20534;-38
2022/05/20 18:28:06;;;;;;;5.70;3.03;;;18.90;99.90;;;;;;12401999;28;20731;-37
2022/05/20 18:39:17;;;;;;;4.70;2.85;;;18.70;99.90;;;;;;12403346;28;20127;-38
2022/05/20 18:40:33;;;;;;;7.38;3.47;;;18.60;99.90;;;;;;12406174;28;20533;-38
2022/05/20 18:46:35;;;;;;;4.90;3.30;;;18.50;99.90;;;;;;12407927;28;20042;-38
2022/05/20 18:52:37;;;;;;;4.45;3.60;;;18.40;99.90;;;;;;12410015;28;20050;-39
2022/05/20 18:58:40;;;;;;;9.35;4.43;;;18.40;99.90;;;;;;12409234;28;20089;-40
2022/05/20 19:04:43;;;;;;;14.10;4.60;;;18.40;99.90;;;;;;12407008;28;20486;-37
2022/05/20 19:10:45;;;;;;;9.00;5.55;;;18.20;99.90;;;;;;12413898;28;20093;-37
2022/05/20 19:16:47;;;;;;;13.32;6.40;;;18.00;99.90;;;;;;12406120;28;20057;-39
2022/05/20 19:22:49;;;;;;;20.02;5.85;;;17.80;99.90;;;;;;12405588;28;20084;-39
2022/05/20 19:28:52;;;;;;;10.23;6.10;;;17.60;99.90;;;;;;12401132;28;20576;-41
2022/05/20 19:34:54;;;;;;;11.00;5.97;;;17.20;99.90;;;;;;12402852;28;20184;-42
2022/05/20 19:40:56;;;;;;;7.15;5.82;;;16.90;99.90;;;;;;12396242;28;20137;-38
2022/05/20 19:46:58;;;;;;;8.57;6.03;;;16.60;99.90;;;;;;12401933;28;20573;-40
2022/05/20 19:53:00;;;;;;;6.68;5.53;;;16.40;99.90;;;;;;12403795;28;20046;-37
2022/05/20 20:05:22;;;;;;;5.22;4.20;;;16.00;99.90;;;;;;12400226;28;20050;-40
2022/05/20 20:11:25;;;;;;;4.90;4.07;;;15.80;99.90;;;;;;12405521;28;20054;-38
2022/05/20 20:17:27;;;;;;;4.70;3.85;;;15.60;99.90;;;;;;12404704;28;20054;-38
2022/05/20 20:29:49;;;;;;;5.38;3.85;;;15.20;99.90;;;;;;12408200;28;20054;-39
2022/05/20 20:35:51;;;;;;;4.63;3.58;;;15.10;99.90;;;;;;12403918;28;20073;-38
2022/05/20 20:41:53;;;;;;;5.10;3.40;;;14.90;99.90;;;;;;12400763;28;20054;-39
2022/05/20 20:48:16;;;;;;;5.00;3.95;;;14.80;99.90;;;;;;12407261;28;20046;-41
2022/05/20 20:54:21;;;;;;;6.93;4.10;;;14.80;99.90;;;;;;12399170;28;20100;-41
2022/05/20 21:00:23;;;;;;;5.47;4.55;;;14.60;99.90;;;;;;12401483;28;20054;-39
2022/05/20 21:06:26;;;;;;;6.78;5.05;;;14.70;99.90;;;;;;12401269;28;20089;-41
2022/05/20 21:12:29;;;;;;;9.37;4.70;;;14.60;99.90;;;;;;12402134;28;20050;-41
2022/05/20 21:18:32;;;;;;;7.30;5.25;;;14.50;99.90;;;;;;12397929;28;20181;-41
2022/05/20 21:24:33;;;;;;;7.45;4.55;;;14.40;99.90;;;;;;12403499;28;20050;-39
2022/05/20 21:30:42;;;;;;;8.27;5.68;;;14.40;99.90;;;;;;12400795;28;20137;-41
2022/05/20 21:36:44;;;;;;;10.07;5.05;;;14.30;99.90;;;;;;12401573;28;20391;-41
2022/05/20 21:42:47;;;;;;;7.60;4.72;;;14.40;99.90;;;;;;12406303;28;20050;-38
2022/05/20 21:48:49;;;;;;;8.15;4.90;;;14.40;99.90;;;;;;12397943;28;20130;-39
2022/05/20 21:54:51;;;;;;;9.15;5.13;;;14.50;99.90;;;;;;12400072;28;20715;-40
2022/05/20 22:13:35;;;;;;;7.82;4.88;;;14.30;99.90;;;;;;12398356;28;20505;-39
2022/05/20 22:19:37;;;;;;;8.38;5.63;;;14.30;99.90;;;;;;12396073;28;20053;-41
2022/05/20 22:25:39;;;;;;;7.93;5.75;;;14.10;99.90;;;;;;12404762;28;20107;-41
2022/05/20 22:31:56;;;;;;;9.13;6.00;;;14.00;99.90;;;;;;12409998;28;20169;-40
2022/05/20 22:37:58;;;;;;;6.80;5.50;;;14.10;99.90;;;;;;12410177;28;20077;-38
2022/05/20 22:44:03;;;;;;;8.88;6.43;;;14.10;99.90;;;;;;12415423;28;20054;-39
2022/05/20 22:50:05;;;;;;;8.88;6.65;;;14.10;99.90;;;;;;12412201;28;20065;-42
2022/05/20 22:56:09;;;;;;;5.35;3.60;;;14.10;99.90;;;;;;12409007;28;20069;-41
2022/05/20 23:02:11;;;;;;;7.13;2.40;;;13.80;99.90;;;;;;12408102;28;20057;-40
2022/05/20 23:08:14;;;;;;;2.60;1.70;;;13.70;99.90;;;;;;12410709;28;20046;-40
2022/05/20 23:14:17;;;;;;;5.72;2.08;;;13.30;99.90;;;;;;12407409;28;20395;-41
2022/05/20 23:20:21;;;;;;;10.65;2.20;;;13.20;99.90;;;;;;12405338;28;20108;-38
2022/05/20 23:26:23;;;;;;;3.65;2.20;;;12.90;99.90;;;;;;12407737;28;20107;-39
2022/05/20 23:32:26;;;;;;;4.35;2.65;;;13.00;99.90;;;;;;12402914;28;20581;-40
2022/05/20 23:38:28;;;;;;;5.75;2.75;;;12.90;99.90;;;;;;12402961;28;20089;-38
2022/05/20 23:44:30;;;;;;;4.30;2.40;;;13.00;99.90;;;;;;12404725;28;20050;-40
2022/05/20 23:50:32;;;;;;;4.97;2.42;;;13.00;99.90;;;;;;12404703;28;20050;-40
